createdAt,value
2023-04-05T00:02:18.837Z,78.26
2023-04-05T00:04:52.167Z,79.58
2023-04-05T00:07:21.441Z,79.27
2023-04-05T00:09:48.825Z,77.82
2023-04-05T00:12:15.479Z,77.56
2023-04-05T00:14:42.089Z,77.88
2023-04-05T00:17:10.891Z,77.89
2023-04-05T00:19:39.352Z,78.48
2023-04-05T00:22:06.101Z,77.80
2023-04-05T00:24:34.050Z,76.68
2023-04-05T00:27:01.350Z,77.76
2023-04-05T00:29:28.072Z,75.49
2023-04-05T00:31:54.712Z,78.61
2023-04-05T00:34:21.261Z,78.48
2023-04-05T00:36:47.860Z,77.57
2023-04-05T00:39:14.399Z,75.74
2023-04-05T00:41:40.939Z,76.12
2023-04-05T00:44:07.839Z,77.79
2023-04-05T00:46:36.601Z,77.47
2023-04-05T00:49:04.886Z,75.94
2023-04-05T00:51:34.940Z,76.00
2023-04-05T00:54:02.702Z,76.00
2023-04-05T00:56:30.284Z,76.04
2023-04-05T00:58:56.876Z,75.18
2023-04-05T01:01:26.384Z,75.71
2023-04-05T01:04:03.138Z,76.11
2023-04-05T01:06:58.130Z,75.47
2023-04-05T01:09:38.187Z,75.90
2023-04-05T01:12:10.318Z,76.72
2023-04-05T01:14:51.513Z,76.61
2023-04-05T01:17:23.857Z,76.44
2023-04-05T01:19:58.950Z,75.68
2023-04-05T01:22:52.032Z,74.12
2023-04-05T01:25:34.867Z,76.00
2023-04-05T01:28:04.093Z,77.08
2023-04-05T01:30:38.355Z,76.13
2023-04-05T01:33:17.109Z,76.18
2023-04-05T01:35:59.444Z,75.97
2023-04-05T01:38:27.933Z,78.34
2023-04-05T01:40:55.023Z,79.94
2023-04-05T01:43:21.787Z,80.97
2023-04-05T01:45:48.571Z,81.16
2023-04-05T01:48:16.388Z,81.53
2023-04-05T01:50:43.616Z,82.86
2023-04-05T01:53:10.436Z,81.20
2023-04-05T01:55:37.088Z,83.89
2023-04-05T01:58:03.842Z,83.96
2023-04-05T02:00:30.834Z,84.56
2023-04-05T02:02:57.492Z,85.05
2023-04-05T02:05:24.077Z,84.04
2023-04-05T02:07:50.674Z,85.28
2023-04-05T02:10:18.612Z,84.81
2023-04-05T02:12:45.397Z,84.21
2023-04-05T02:15:12.361Z,84.72
2023-04-05T02:17:40.017Z,85.36
2023-04-05T02:20:12.689Z,84.14
2023-04-05T02:22:40.107Z,84.02
2023-04-05T02:25:09.153Z,84.79
2023-04-05T02:27:35.802Z,85.46
2023-04-05T02:30:02.823Z,84.74
2023-04-05T02:32:29.417Z,86.25
2023-04-05T02:34:56.116Z,85.69
2023-04-05T02:37:22.800Z,85.78
2023-04-05T02:39:49.541Z,87.18
2023-04-05T02:42:16.140Z,86.76
2023-04-05T02:44:42.845Z,85.63
2023-04-05T02:47:09.452Z,87.31
2023-04-05T02:49:36.137Z,86.88
2023-04-05T02:52:02.729Z,86.59
2023-04-05T02:54:29.285Z,87.34
2023-04-05T02:56:57.836Z,87.68
2023-04-05T02:59:25.033Z,86.51
2023-04-05T03:01:51.743Z,87.34
2023-04-05T03:04:18.921Z,85.88
2023-04-05T03:06:48.768Z,86.21
2023-04-05T03:09:15.584Z,85.27
2023-04-05T03:11:42.218Z,85.83
2023-04-05T03:14:08.883Z,85.08
2023-04-05T03:16:36.596Z,84.62
2023-04-05T03:19:06.361Z,83.67
2023-04-05T03:21:33.955Z,84.02
2023-04-05T03:24:00.550Z,81.52
2023-04-05T03:26:27.648Z,81.67
2023-04-05T03:28:54.185Z,82.50
2023-04-05T03:31:20.900Z,83.33
2023-04-05T03:33:47.572Z,83.38
2023-04-05T03:36:16.772Z,85.30
2023-04-05T03:38:45.894Z,83.34
2023-04-05T03:41:12.563Z,84.36
2023-04-05T03:43:39.161Z,84.16
2023-04-05T03:46:05.899Z,81.79
2023-04-05T03:48:32.496Z,82.07
2023-04-05T03:50:59.137Z,83.67
2023-04-05T03:53:26.490Z,82.50
2023-04-05T03:55:54.386Z,83.76
2023-04-05T03:58:21.996Z,82.18
2023-04-05T04:00:48.884Z,82.94
2023-04-05T04:03:15.635Z,82.42
2023-04-05T04:05:42.482Z,83.91
2023-04-05T04:08:09.885Z,84.69
2023-04-05T04:10:36.869Z,83.48
2023-04-05T04:13:03.466Z,83.75
2023-04-05T04:15:29.994Z,82.87
2023-04-05T04:17:56.965Z,83.67
2023-04-05T04:20:23.574Z,82.87
2023-04-05T04:22:50.172Z,83.44
2023-04-05T04:25:18.914Z,83.68
2023-04-05T04:27:46.752Z,83.59
2023-04-05T04:30:15.041Z,82.61
2023-04-05T04:32:52.772Z,82.60
2023-04-05T04:35:25.190Z,83.09
2023-04-05T04:37:59.758Z,82.24
2023-04-05T04:40:39.584Z,82.84
2023-04-05T04:43:14.577Z,82.43
2023-04-05T04:45:41.830Z,82.48
2023-04-05T04:48:08.485Z,84.19
2023-04-05T04:50:35.349Z,83.85
2023-04-05T04:53:02.172Z,85.13
2023-04-05T04:55:29.241Z,84.61
2023-04-05T04:57:56.652Z,84.99
2023-04-05T05:00:24.403Z,83.29
2023-04-05T05:02:53.117Z,83.91
2023-04-05T05:05:23.598Z,83.63
2023-04-05T05:07:52.822Z,83.58
2023-04-05T05:10:20.165Z,84.23
2023-04-05T05:12:48.755Z,83.80
2023-04-05T05:15:15.408Z,84.40
2023-04-05T05:17:42.216Z,83.04
2023-04-05T05:20:11.357Z,83.42
2023-04-05T05:22:39.112Z,83.68
2023-04-05T05:25:06.964Z,85.17
2023-04-05T05:27:36.417Z,83.39
2023-04-05T05:30:03.932Z,85.60
2023-04-05T05:32:30.469Z,84.33
2023-04-05T05:34:57.158Z,84.27
2023-04-05T05:37:31.213Z,85.06
2023-04-05T05:39:57.773Z,83.63
2023-04-05T05:42:24.350Z,83.82
2023-04-05T05:44:50.930Z,84.36
2023-04-05T05:47:17.533Z,84.96
2023-04-05T05:49:44.124Z,84.13
2023-04-05T05:52:10.788Z,84.48
2023-04-05T05:54:37.306Z,85.59
2023-04-05T05:57:03.889Z,84.34
2023-04-05T05:59:30.724Z,83.47
2023-04-05T06:01:57.354Z,83.12
2023-04-05T06:04:24.530Z,83.41
2023-04-05T06:06:51.664Z,82.64
2023-04-05T06:09:18.198Z,83.44
2023-04-05T06:11:55.911Z,84.90
2023-04-05T06:14:25.164Z,81.77
2023-04-05T06:16:52.335Z,82.58
2023-04-05T06:19:19.188Z,81.88
2023-04-05T06:21:45.951Z,82.42
2023-04-05T06:24:12.593Z,80.30
2023-04-05T06:26:39.173Z,81.92
2023-04-05T06:29:06.260Z,79.37
2023-04-05T06:31:35.859Z,79.96
2023-04-05T06:34:03.120Z,80.21
2023-04-05T06:36:34.609Z,80.29
2023-04-05T06:39:01.588Z,79.08
2023-04-05T06:41:28.236Z,80.61
2023-04-05T06:43:56.225Z,78.96
2023-04-05T06:46:23.072Z,78.03
2023-04-05T06:48:50.373Z,77.76
2023-04-05T06:51:17.073Z,78.13
2023-04-05T06:53:43.969Z,76.32
2023-04-05T06:56:11.140Z,76.79
2023-04-05T06:58:38.326Z,77.52
2023-04-05T07:01:05.597Z,78.06
2023-04-05T07:03:32.749Z,78.79
2023-04-05T07:06:00.463Z,76.77
2023-04-05T07:08:28.510Z,77.81
2023-04-05T07:10:55.462Z,78.88
2023-04-05T07:13:23.575Z,78.99
2023-04-05T07:15:51.345Z,77.64
2023-04-05T07:18:19.296Z,77.36
2023-04-05T07:20:48.927Z,79.28
2023-04-05T07:23:15.490Z,74.86
2023-04-05T07:25:42.055Z,75.86
2023-04-05T07:28:08.716Z,77.67
2023-04-05T07:30:36.918Z,77.25
2023-04-05T07:33:03.757Z,78.65
2023-04-05T07:35:30.905Z,77.47
2023-04-05T07:37:57.567Z,74.25
2023-04-05T07:40:24.222Z,77.49
2023-04-05T07:42:50.855Z,75.32
2023-04-05T07:45:17.510Z,75.22
2023-04-05T07:47:44.361Z,71.88
2023-04-05T07:50:15.148Z,72.69
2023-04-05T07:52:42.784Z,72.40
2023-04-05T07:55:10.358Z,71.71
2023-04-05T07:57:37.632Z,69.40
2023-04-05T08:00:05.114Z,70.20
2023-04-05T08:02:31.790Z,70.41
2023-04-05T08:04:58.546Z,69.22
2023-04-05T08:07:25.578Z,68.67
2023-04-05T08:09:53.702Z,66.65
2023-04-05T08:12:20.472Z,67.05
2023-04-05T08:14:47.025Z,66.32
2023-04-05T08:17:14.862Z,66.83
2023-04-05T08:19:41.385Z,67.74
2023-04-05T08:22:08.064Z,67.90
2023-04-05T08:24:34.777Z,64.90
2023-04-05T08:27:01.445Z,65.31
2023-04-05T08:29:28.028Z,65.83
2023-04-05T08:31:58.483Z,65.30
2023-04-05T08:34:25.204Z,66.68
2023-04-05T08:36:51.755Z,66.01
2023-04-05T08:39:18.759Z,63.41
2023-04-05T08:41:54.857Z,65.64
2023-04-05T08:44:23.044Z,65.04
2023-04-05T08:46:50.973Z,65.21
2023-04-05T08:49:17.682Z,65.86
2023-04-05T08:51:44.371Z,64.22
2023-04-05T08:54:11.604Z,64.79
2023-04-05T08:56:38.960Z,65.22
2023-04-05T08:59:07.418Z,69.02
2023-04-05T09:01:37.325Z,64.83
2023-04-05T09:04:10.876Z,65.05
2023-04-05T09:06:37.681Z,65.92
2023-04-05T09:09:07.620Z,66.99
2023-04-05T09:11:35.633Z,66.18
2023-04-05T09:14:06.295Z,63.57
2023-04-05T09:16:38.855Z,64.92
2023-04-05T09:19:06.534Z,62.28
2023-04-05T09:22:01.926Z,64.70
2023-04-05T09:24:39.299Z,65.33
2023-04-05T09:27:18.996Z,62.18
2023-04-05T09:29:49.762Z,64.00
2023-04-05T09:32:19.253Z,61.60
2023-04-05T09:34:45.918Z,64.70
2023-04-05T09:37:20.411Z,64.74
2023-04-05T09:39:52.445Z,63.60
2023-04-05T09:42:23.112Z,66.84
2023-04-05T09:44:54.060Z,64.85
2023-04-05T09:47:22.645Z,65.25
2023-04-05T09:49:49.245Z,65.70
2023-04-05T09:52:19.492Z,67.00
2023-04-05T09:54:46.181Z,66.60
2023-04-05T09:57:12.999Z,67.60
2023-04-05T09:59:40.352Z,68.25
2023-04-05T10:02:07.221Z,67.57
2023-04-05T10:04:45.382Z,67.63
2023-04-05T10:07:14.081Z,65.05
2023-04-05T10:09:42.026Z,67.43
2023-04-05T10:12:10.000Z,66.44
2023-04-05T10:14:37.348Z,66.22
2023-04-05T10:17:14.549Z,67.25
2023-04-05T10:19:47.116Z,65.56
2023-04-05T10:22:18.344Z,63.44
2023-04-05T10:25:11.486Z,63.25
2023-04-05T10:27:45.086Z,64.07
2023-04-05T10:30:13.406Z,62.04
2023-04-05T10:32:59.023Z,60.84
2023-04-05T10:35:42.537Z,61.39
2023-04-05T10:38:27.007Z,60.04
2023-04-05T10:41:06.813Z,59.63
2023-04-05T10:43:35.637Z,62.43
2023-04-05T10:46:03.491Z,65.59
2023-04-05T10:48:58.243Z,62.16
2023-04-05T10:51:26.871Z,62.60
2023-04-05T10:53:54.794Z,62.08
2023-04-05T10:56:21.813Z,62.75
2023-04-05T10:58:50.646Z,60.74
2023-04-05T11:01:18.870Z,63.03
2023-04-05T11:03:49.480Z,63.11
2023-04-05T11:06:22.949Z,61.18
2023-04-05T11:08:53.573Z,61.21
2023-04-05T11:11:22.535Z,62.23
2023-04-05T11:13:51.658Z,64.10
2023-04-05T11:16:18.287Z,63.62
2023-04-05T11:18:47.331Z,60.68
2023-04-05T11:21:21.942Z,61.99
2023-04-05T11:24:09.633Z,61.59
2023-04-05T11:26:48.420Z,63.78
2023-04-05T11:29:17.810Z,63.15
2023-04-05T11:32:12.585Z,62.83
2023-04-05T11:34:42.543Z,63.27
2023-04-05T11:37:09.379Z,59.76
2023-04-05T11:39:38.238Z,60.26
2023-04-05T11:42:04.884Z,61.71
2023-04-05T11:44:47.238Z,61.87
2023-04-05T11:47:17.037Z,62.91
2023-04-05T11:49:43.806Z,58.67
2023-04-05T11:52:16.115Z,60.21
2023-04-05T11:54:46.683Z,60.51
2023-04-05T11:57:16.162Z,61.59
2023-04-05T11:59:43.660Z,61.84
2023-04-05T12:02:10.247Z,62.30
2023-04-05T12:04:37.711Z,63.21
2023-04-05T12:07:13.353Z,61.74
2023-04-05T12:09:59.381Z,63.38
2023-04-05T12:12:26.114Z,63.43
2023-04-05T12:14:59.004Z,63.69
2023-04-05T12:17:49.333Z,61.56
2023-04-05T12:20:24.672Z,59.92
2023-04-05T12:22:56.380Z,62.33
2023-04-05T12:25:23.837Z,61.01
2023-04-05T12:27:50.325Z,59.25
2023-04-05T12:30:22.027Z,58.91
2023-04-05T12:32:53.457Z,57.97
2023-04-05T12:35:34.701Z,57.34
2023-04-05T12:38:05.994Z,57.38
2023-04-05T12:40:34.837Z,59.24
2023-04-05T12:43:05.238Z,58.09
2023-04-05T12:45:40.234Z,56.23
2023-04-05T12:48:15.176Z,58.11
2023-04-05T12:50:47.277Z,57.02
2023-04-05T12:53:25.481Z,56.82
2023-04-05T12:55:53.888Z,56.23
2023-04-05T12:58:22.629Z,57.18
2023-04-05T13:00:49.199Z,55.97
2023-04-05T13:03:21.383Z,54.72
2023-04-05T13:05:51.003Z,55.42
2023-04-05T13:08:20.890Z,55.02
2023-04-05T13:10:48.650Z,55.93
2023-04-05T13:13:20.626Z,56.52
2023-04-05T13:15:48.096Z,55.37
2023-04-05T13:18:15.916Z,54.70
2023-04-05T13:20:42.837Z,56.41
2023-04-05T13:23:12.001Z,55.09
2023-04-05T13:25:39.722Z,54.89
2023-04-05T13:28:06.693Z,58.21
2023-04-05T13:30:33.392Z,55.47
2023-04-05T13:33:00.053Z,55.13
2023-04-05T13:35:27.195Z,54.32
2023-04-05T13:37:53.806Z,55.92
2023-04-05T13:40:20.446Z,56.06
2023-04-05T13:42:47.868Z,56.03
2023-04-05T13:45:14.569Z,55.44
2023-04-05T13:47:41.266Z,54.45
2023-04-05T13:50:08.251Z,54.86
2023-04-05T13:52:34.915Z,55.55
2023-04-05T13:55:03.219Z,56.20
2023-04-05T13:57:30.845Z,55.85
2023-04-05T13:59:57.491Z,55.24
2023-04-05T14:02:26.106Z,54.84
2023-04-05T14:04:53.742Z,56.00
2023-04-05T14:07:21.708Z,55.08
2023-04-05T14:09:48.358Z,56.26
2023-04-05T14:12:15.097Z,54.52
2023-04-05T14:14:41.759Z,54.98
2023-04-05T14:17:08.442Z,56.84
2023-04-05T14:19:35.154Z,54.74
2023-04-05T14:22:02.108Z,58.52
2023-04-05T14:24:28.801Z,56.48
2023-04-05T14:26:58.554Z,54.48
2023-04-05T14:29:25.471Z,56.29
2023-04-05T14:31:52.113Z,56.10
2023-04-05T14:34:19.843Z,57.26
2023-04-05T14:36:46.542Z,55.78
2023-04-05T14:39:13.297Z,55.36
2023-04-05T14:41:40.132Z,56.34
2023-04-05T14:44:06.928Z,56.17
2023-04-05T14:46:33.608Z,57.53
2023-04-05T14:49:00.319Z,56.01
2023-04-05T14:51:27.439Z,57.12
2023-04-05T14:53:54.157Z,57.71
2023-04-05T14:56:21.237Z,56.40
2023-04-05T14:58:47.906Z,56.50
2023-04-05T15:01:14.700Z,56.36
2023-04-05T15:03:41.462Z,55.99
2023-04-05T15:06:08.313Z,58.64
2023-04-05T15:08:34.899Z,57.14
2023-04-05T15:11:01.647Z,57.81
2023-04-05T15:13:28.297Z,57.85
2023-04-05T15:15:54.840Z,57.83
2023-04-05T15:18:21.468Z,57.66
2023-04-05T15:20:48.136Z,57.17
2023-04-05T15:23:14.818Z,57.63
2023-04-05T15:25:41.410Z,57.97
2023-04-05T15:28:08.169Z,57.80
2023-04-05T15:30:36.196Z,57.54
2023-04-05T15:33:02.811Z,56.29
2023-04-05T15:35:29.572Z,56.87
2023-04-05T15:37:56.413Z,56.91
2023-04-05T15:40:22.999Z,59.09
2023-04-05T15:42:49.670Z,58.56
2023-04-05T15:45:16.465Z,57.29
2023-04-05T15:47:43.613Z,57.94
2023-04-05T15:50:10.290Z,57.60
2023-04-05T15:52:37.010Z,56.99
2023-04-05T15:55:04.383Z,57.35
2023-04-05T15:57:30.920Z,56.55
2023-04-05T15:59:57.561Z,57.35
2023-04-05T16:02:25.347Z,57.09
2023-04-05T16:04:52.048Z,57.12
2023-04-05T16:07:18.843Z,56.58
2023-04-05T16:09:45.463Z,55.90
2023-04-05T16:12:12.159Z,57.19
2023-04-05T16:14:39.483Z,56.32
2023-04-05T16:17:06.361Z,57.40
2023-04-05T16:19:33.523Z,57.71
2023-04-05T16:22:00.917Z,57.79
2023-04-05T16:24:27.755Z,58.09
2023-04-05T16:26:54.374Z,57.51
2023-04-05T16:29:21.151Z,57.61
2023-04-05T16:31:47.926Z,58.15
2023-04-05T16:34:14.727Z,57.90
2023-04-05T16:36:41.857Z,58.18
2023-04-05T16:39:08.889Z,59.42
2023-04-05T16:41:36.389Z,58.96
2023-04-05T16:44:03.818Z,58.28
2023-04-05T16:46:32.293Z,60.44
2023-04-05T16:49:00.321Z,59.80
2023-04-05T16:51:28.035Z,58.79
2023-04-05T16:53:55.319Z,58.74
2023-04-05T16:56:22.809Z,59.77
2023-04-05T16:58:49.449Z,60.39
2023-04-05T17:01:16.306Z,60.22
2023-04-05T17:03:46.876Z,60.47
2023-04-05T17:06:16.513Z,59.86
2023-04-05T17:08:43.288Z,60.31
2023-04-05T17:11:10.430Z,58.91
2023-04-05T17:13:37.126Z,60.16
2023-04-05T17:16:04.012Z,61.11
2023-04-05T17:18:30.608Z,61.21
2023-04-05T17:20:57.236Z,60.22
2023-04-05T17:23:25.579Z,60.87
2023-04-05T17:25:52.230Z,59.85
2023-04-05T17:28:18.821Z,61.17
2023-04-05T17:30:45.631Z,61.64
2023-04-05T17:33:12.401Z,59.41
2023-04-05T17:35:39.135Z,60.34
2023-04-05T17:38:05.816Z,58.30
2023-04-05T17:40:32.571Z,61.38
2023-04-05T17:42:59.229Z,60.37
2023-04-05T17:45:25.827Z,60.32
2023-04-05T17:47:52.438Z,59.50
2023-04-05T17:50:19.113Z,61.52
2023-04-05T17:52:46.936Z,60.41
2023-04-05T17:55:13.572Z,60.98
2023-04-05T17:57:40.333Z,59.26
2023-04-05T18:00:07.626Z,59.85
2023-04-05T18:02:37.175Z,60.88
2023-04-05T18:05:04.917Z,60.98
2023-04-05T18:07:31.533Z,61.42
2023-04-05T18:09:58.931Z,61.10
2023-04-05T18:12:25.687Z,61.96
2023-04-05T18:14:52.378Z,61.29
2023-04-05T18:17:20.149Z,63.00
2023-04-05T18:19:49.344Z,61.27
2023-04-05T18:22:16.514Z,61.67
2023-04-05T18:24:43.437Z,61.89
2023-04-05T18:27:10.908Z,61.36
2023-04-05T18:29:38.231Z,61.31
2023-04-05T18:32:08.440Z,61.02
2023-04-05T18:34:35.721Z,60.95
2023-04-05T18:37:02.463Z,61.00
2023-04-05T18:39:29.016Z,60.57
2023-04-05T18:41:55.660Z,60.83
2023-04-05T18:44:22.222Z,61.80
2023-04-05T18:46:49.764Z,62.12
2023-04-05T18:49:18.344Z,63.27
2023-04-05T18:51:46.056Z,64.44
2023-04-05T18:54:13.872Z,64.03
2023-04-05T18:56:41.106Z,62.81
2023-04-05T18:59:08.160Z,63.71
2023-04-05T19:01:35.046Z,63.07
2023-04-05T19:04:01.674Z,63.11
2023-04-05T19:06:28.319Z,63.63
2023-04-05T19:08:54.935Z,62.90
2023-04-05T19:11:22.166Z,62.98
2023-04-05T19:13:48.860Z,63.64
2023-04-05T19:16:17.548Z,63.22
2023-04-05T19:18:44.679Z,63.72
2023-04-05T19:21:11.475Z,63.61
2023-04-05T19:23:38.845Z,64.19
2023-04-05T19:26:05.649Z,64.01
2023-04-05T19:28:32.231Z,63.80
2023-04-05T19:30:58.810Z,63.57
2023-04-05T19:33:25.510Z,64.34
2023-04-05T19:35:52.352Z,64.04
2023-04-05T19:38:22.030Z,64.54
2023-04-05T19:40:49.063Z,63.54
2023-04-05T19:43:16.003Z,64.81
2023-04-05T19:45:43.031Z,65.65
2023-04-05T19:48:41.913Z,65.01
2023-04-05T19:51:10.358Z,65.98
2023-04-05T19:53:42.731Z,65.29
2023-04-05T19:56:32.291Z,65.29
2023-04-05T19:59:22.965Z,65.73
2023-04-05T20:01:49.746Z,66.98
2023-04-05T20:04:18.997Z,66.15
2023-04-05T20:06:54.303Z,66.97
2023-04-05T20:09:23.320Z,66.85
2023-04-05T20:11:56.026Z,66.23
2023-04-05T20:14:28.064Z,67.43
2023-04-05T20:16:56.068Z,66.38
2023-04-05T20:19:31.026Z,65.56
2023-04-05T20:22:02.080Z,66.48
2023-04-05T20:24:29.578Z,66.22
2023-04-05T20:26:57.039Z,66.25
2023-04-05T20:29:28.076Z,67.21
2023-04-05T20:31:55.665Z,67.06
2023-04-05T20:34:31.039Z,67.03
2023-04-05T20:37:00.605Z,66.36
2023-04-05T20:39:29.039Z,66.31
2023-04-05T20:41:56.121Z,67.08
2023-04-05T20:44:23.721Z,66.46
2023-04-05T20:46:54.649Z,67.73
2023-04-05T20:49:22.460Z,67.21
2023-04-05T20:51:50.710Z,66.58
2023-04-05T20:54:19.670Z,65.73
2023-04-05T20:56:46.823Z,66.23
2023-04-05T20:59:14.785Z,66.15
2023-04-05T21:01:42.957Z,66.12
2023-04-05T21:04:10.267Z,66.30
2023-04-05T21:07:26.616Z,65.98
2023-04-05T21:09:53.107Z,66.43
2023-04-05T21:12:19.849Z,66.75
2023-04-05T21:14:46.462Z,66.97
2023-04-05T21:17:13.120Z,69.07
2023-04-05T21:19:39.760Z,67.88
2023-04-05T21:22:06.410Z,69.16
2023-04-05T21:24:33.066Z,67.90
2023-04-05T21:26:59.650Z,67.89
2023-04-05T21:29:26.550Z,67.87
2023-04-05T21:31:53.286Z,68.10
2023-04-05T21:34:19.902Z,68.04
2023-04-05T21:36:46.718Z,67.65
2023-04-05T21:39:13.362Z,66.94
2023-04-05T21:41:39.978Z,69.01
2023-04-05T21:44:06.716Z,68.13
2023-04-05T21:46:33.428Z,67.79
2023-04-05T21:49:00.189Z,67.38
2023-04-05T21:51:26.879Z,67.76
2023-04-05T21:53:53.478Z,67.20
2023-04-05T21:56:20.136Z,67.42
2023-04-05T21:58:46.851Z,67.60
2023-04-05T22:01:13.836Z,66.20
2023-04-05T22:03:40.580Z,68.25
2023-04-05T22:06:07.277Z,67.63
2023-04-05T22:08:34.459Z,66.77
2023-04-05T22:11:01.218Z,67.01
2023-04-05T22:13:27.929Z,69.32
2023-04-05T22:15:54.640Z,71.61
2023-04-05T22:18:21.341Z,69.98
2023-04-05T22:20:47.988Z,70.62
2023-04-05T22:23:14.707Z,70.90
2023-04-05T22:25:41.291Z,71.69
2023-04-05T22:28:08.578Z,70.75
2023-04-05T22:30:43.785Z,70.19
2023-04-05T22:33:13.164Z,71.46
2023-04-05T22:35:39.896Z,70.88
2023-04-05T22:38:06.634Z,70.51
2023-04-05T22:40:33.341Z,68.30
2023-04-05T22:42:59.993Z,69.13
2023-04-05T22:45:26.829Z,69.36
2023-04-05T22:47:53.540Z,69.91
2023-04-05T22:50:21.026Z,69.34
2023-04-05T22:52:47.655Z,69.30
2023-04-05T22:55:14.409Z,69.35
2023-04-05T22:57:41.017Z,68.96
2023-04-05T23:00:08.174Z,68.53
2023-04-05T23:02:34.818Z,69.83
2023-04-05T23:05:01.595Z,71.35
2023-04-05T23:07:29.200Z,69.24
2023-04-05T23:09:55.881Z,68.46
2023-04-05T23:12:22.525Z,71.19
2023-04-05T23:14:50.905Z,69.52
2023-04-05T23:17:19.547Z,68.90
2023-04-05T23:19:46.201Z,68.62
2023-04-05T23:22:12.762Z,71.36
2023-04-05T23:24:39.410Z,70.84
2023-04-05T23:27:06.451Z,71.49
2023-04-05T23:29:33.025Z,71.26
2023-04-05T23:31:59.599Z,70.33
2023-04-05T23:34:26.226Z,69.93
2023-04-05T23:36:52.815Z,69.68
2023-04-05T23:39:19.476Z,69.84
2023-04-05T23:41:46.447Z,69.66
2023-04-05T23:44:12.974Z,69.65
2023-04-05T23:46:39.593Z,68.39
2023-04-05T23:49:06.478Z,68.16
2023-04-05T23:51:33.126Z,68.76
2023-04-05T23:53:59.674Z,68.02
2023-04-05T23:56:26.445Z,68.44
2023-04-05T23:58:53.132Z,68.44
